Time;durP1;ratioP1;P1;durP2;ratioP2;P2;SDS_P1;SDS_P2;PMS_P1;PMS_P2;Temp;Humidity;BMP_temperature;BMP_pressure;BME280_temperature;BME280_humidity;BME280_pressure;Samples;Min_cycle;Max_cycle;Signal;HPM_P1;HPM_P2
2021/08/30 00:02:16;;;;;;;14.15;9.65;;;22.30;34.00;;;;;;5019549;28;20030;-63
2021/08/30 00:04:42;;;;;;;8.20;6.65;;;22.30;33.90;;;;;;5025206;28;20033;-63
2021/08/30 00:07:07;;;;;;;5.28;3.80;;;22.20;34.00;;;;;;5026820;28;20064;-63
2021/08/30 00:09:33;;;;;;;6.43;4.68;;;22.20;34.10;;;;;;5028218;28;20088;-63
2021/08/30 00:11:59;;;;;;;12.32;8.23;;;22.20;34.60;;;;;;5026103;28;20029;-63
2021/08/30 00:14:24;;;;;;;11.73;9.05;;;22.20;35.30;;;;;;5021140;28;20461;-63
2021/08/30 00:16:50;;;;;;;6.82;4.20;;;22.10;35.10;;;;;;5027768;28;20044;-63
2021/08/30 00:19:15;;;;;;;11.15;8.32;;;22.10;35.50;;;;;;5021712;28;20064;-63
2021/08/30 00:21:41;;;;;;;19.35;12.57;;;22.10;35.20;;;;;;5028366;28;20459;-63
2021/08/30 00:24:07;;;;;;;7.07;6.25;;;22.00;35.50;;;;;;5018000;28;20041;-63
2021/08/30 00:26:32;;;;;;;9.57;5.07;;;22.10;35.50;;;;;;5024280;28;20099;-63
2021/08/30 00:28:58;;;;;;;11.82;8.57;;;22.00;35.60;;;;;;5025736;28;20457;-63
2021/08/30 00:31:27;;;;;;;13.38;9.38;;;22.00;35.40;;;;;;5022732;28;20049;-62
2021/08/30 00:33:53;;;;;;;5.78;4.78;;;22.00;35.70;;;;;;5015481;28;20046;-63
2021/08/30 00:36:19;;;;;;;6.40;4.68;;;21.90;35.50;;;;;;5027493;28;20049;-63
2021/08/30 00:38:45;;;;;;;6.07;4.20;;;21.90;35.70;;;;;;5021552;28;20033;-63
2021/08/30 00:41:12;;;;;;;10.52;6.60;;;21.90;35.70;;;;;;5016214;28;20059;-63
2021/08/30 00:43:38;;;;;;;16.52;10.80;;;21.90;36.00;;;;;;5023208;28;20041;-63
2021/08/30 00:46:34;;;;;;;3.17;2.80;;;21.90;35.90;;;;;;5026208;28;20487;-63
2021/08/30 00:48:59;;;;;;;1.40;1.30;;;21.90;37.30;;;;;;5023570;28;20644;-63
2021/08/30 00:51:25;;;;;;;2.33;1.70;;;21.90;36.20;;;;;;5025426;28;20025;-63
2021/08/30 00:53:51;;;;;;;3.50;1.48;;;21.80;36.00;;;;;;5028464;28;20495;-63
2021/08/30 00:56:17;;;;;;;2.60;1.50;;;21.70;35.70;;;;;;5039132;28;20034;-64
2021/08/30 00:58:44;;;;;;;5.50;1.52;;;21.80;36.10;;;;;;5021122;28;20433;-64
2021/08/30 01:01:10;;;;;;;2.17;1.33;;;21.80;35.80;;;;;;5018531;28;20415;-64
2021/08/30 01:03:37;;;;;;;2.55;1.20;;;21.70;36.00;;;;;;5026512;28;20110;-64
2021/08/30 01:06:35;;;;;;;2.13;1.50;;;21.70;36.20;;;;;;5025851;28;20511;-63
2021/08/30 01:09:13;;;;;;;1.73;1.63;;;21.70;37.00;;;;;;5021226;28;20077;-64
2021/08/30 01:11:42;;;;;;;2.40;1.35;;;21.50;37.10;;;;;;5030012;28;20030;-63
2021/08/30 01:14:11;;;;;;;3.08;1.83;;;21.40;37.00;;;;;;5028689;28;20068;-64
2021/08/30 01:16:38;;;;;;;2.20;1.58;;;21.40;37.80;;;;;;5044897;28;20036;-64
2021/08/30 01:19:09;;;;;;;1.90;1.35;;;21.40;37.80;;;;;;5025600;28;20034;-64
2021/08/30 01:21:39;;;;;;;2.40;1.40;;;21.40;38.40;;;;;;5029306;28;20036;-63
2021/08/30 01:24:10;;;;;;;2.30;1.60;;;21.30;38.40;;;;;;5033252;28;20072;-63
2021/08/30 01:26:51;;;;;;;1.13;1.02;;;21.30;38.70;;;;;;5028287;28;20029;-64
2021/08/30 01:29:36;;;;;;;1.67;1.48;;;21.30;39.70;;;;;;5025035;28;20383;-63
2021/08/30 01:32:07;;;;;;;1.60;1.50;;;21.30;39.20;;;;;;5031061;28;20052;-64
2021/08/30 01:34:35;;;;;;;2.22;1.40;;;21.20;39.30;;;;;;5025789;28;20488;-64
2021/08/30 01:37:01;;;;;;;2.13;1.63;;;21.20;39.60;;;;;;5034029;28;20040;-63
2021/08/30 01:39:30;;;;;;;4.47;1.95;;;21.20;39.90;;;;;;5024835;28;20396;-64
2021/08/30 01:41:58;;;;;;;2.80;1.70;;;21.10;40.00;;;;;;5025654;28;20100;-64
2021/08/30 01:44:25;;;;;;;2.22;1.92;;;21.20;40.20;;;;;;5026944;28;20109;-64
2021/08/30 01:46:51;;;;;;;1.63;1.52;;;21.10;40.40;;;;;;5029175;28;20699;-63
2021/08/30 01:49:19;;;;;;;2.55;1.65;;;21.10;40.60;;;;;;5031636;28;20026;-63
2021/08/30 01:51:47;;;;;;;4.05;1.80;;;21.10;42.20;;;;;;5029746;28;20021;-63
2021/08/30 01:54:14;;;;;;;1.98;1.33;;;21.10;41.50;;;;;;5025876;28;20065;-63
2021/08/30 01:56:45;;;;;;;2.45;1.70;;;21.00;41.30;;;;;;5031216;28;20125;-62
2021/08/30 02:01:56;;;;;;;2.63;1.77;;;21.00;41.80;;;;;;5026471;28;20097;-62
2021/08/30 02:04:22;;;;;;;3.20;1.70;;;20.90;41.70;;;;;;5045738;28;20029;-62
2021/08/30 02:06:48;;;;;;;1.70;1.60;;;20.90;42.00;;;;;;5031579;28;20075;-63
2021/08/30 02:09:14;;;;;;;3.38;1.85;;;20.90;42.10;;;;;;5020017;28;20174;-63
2021/08/30 02:11:39;;;;;;;1.73;1.55;;;20.90;42.30;;;;;;5031798;28;20031;-63
2021/08/30 02:14:08;;;;;;;2.42;1.90;;;20.90;42.30;;;;;;5025453;28;20034;-62
2021/08/30 02:16:38;;;;;;;2.35;1.75;;;21.00;42.60;;;;;;5029919;28;20025;-63
2021/08/30 02:19:30;;;;;;;2.17;1.98;;;21.10;42.60;;;;;;5028102;28;20053;-62
2021/08/30 02:22:02;;;;;;;3.35;2.05;;;21.00;43.90;;;;;;5028105;28;20096;-63
2021/08/30 02:24:39;;;;;;;1.73;1.63;;;20.90;43.20;;;;;;5018700;28;20026;-63
2021/08/30 02:27:14;;;;;;;2.05;1.70;;;21.00;43.50;;;;;;5027077;28;20059;-63
2021/08/30 02:29:43;;;;;;;3.08;1.88;;;21.00;42.60;;;;;;5023762;28;20096;-63
2021/08/30 02:32:09;;;;;;;1.88;1.77;;;21.10;42.90;;;;;;5031431;28;20049;-63
2021/08/30 02:34:36;;;;;;;3.75;1.80;;;21.00;42.50;;;;;;5024724;28;20413;-63
2021/08/30 02:37:03;;;;;;;2.28;1.70;;;21.00;42.30;;;;;;5025491;28;20368;-63
2021/08/30 02:39:30;;;;;;;2.92;1.75;;;21.00;42.50;;;;;;5015228;28;20038;-63
2021/08/30 02:41:57;;;;;;;5.35;2.15;;;21.00;42.70;;;;;;5023316;28;20080;-63
2021/08/30 02:44:22;;;;;;;3.05;2.00;;;21.10;42.70;;;;;;5045899;28;20053;-63
2021/08/30 02:46:48;;;;;;;1.95;1.65;;;21.00;42.70;;;;;;5025622;28;20053;-63
2021/08/30 02:49:15;;;;;;;2.17;1.83;;;21.00;43.10;;;;;;5027864;28;20063;-63
2021/08/30 02:51:42;;;;;;;1.98;1.60;;;21.00;42.80;;;;;;5027197;28;20391;-63
2021/08/30 02:54:09;;;;;;;1.63;1.42;;;21.10;43.00;;;;;;5030875;28;20036;-63
2021/08/30 02:56:37;;;;;;;4.85;1.67;;;21.10;42.80;;;;;;5022307;28;20091;-63
2021/08/30 02:59:05;;;;;;;2.08;1.50;;;21.10;42.50;;;;;;5026433;28;20484;-63
2021/08/30 03:01:32;;;;;;;3.35;2.00;;;21.10;42.50;;;;;;5021495;28;20056;-63
2021/08/30 03:03:58;;;;;;;3.58;1.92;;;21.00;42.40;;;;;;5025966;28;20034;-63
2021/08/30 03:06:26;;;;;;;3.10;2.38;;;21.00;42.70;;;;;;5028102;28;20112;-63
2021/08/30 03:08:52;;;;;;;3.15;2.05;;;21.00;43.00;;;;;;5030005;28;20375;-62
2021/08/30 03:11:21;;;;;;;4.95;1.92;;;21.00;42.80;;;;;;5018863;28;20029;-63
2021/08/30 03:13:47;;;;;;;2.85;1.83;;;21.00;42.60;;;;;;5021696;28;20495;-64
2021/08/30 03:16:13;;;;;;;2.63;2.42;;;21.00;43.10;;;;;;5023102;28;20021;-64
2021/08/30 03:18:40;;;;;;;2.25;1.73;;;20.80;43.20;;;;;;5030293;28;20041;-63
2021/08/30 03:21:07;;;;;;;2.20;2.03;;;20.90;43.30;;;;;;5018771;28;20024;-63
2021/08/30 03:23:35;;;;;;;2.30;2.10;;;20.90;43.90;;;;;;5027523;28;20021;-63
2021/08/30 03:26:02;;;;;;;3.22;2.20;;;20.90;43.40;;;;;;5026868;28;20448;-63
2021/08/30 03:28:29;;;;;;;5.75;2.15;;;20.90;43.60;;;;;;5017495;28;20029;-63
2021/08/30 03:30:56;;;;;;;2.25;2.03;;;20.90;42.90;;;;;;5030082;28;20432;-63
2021/08/30 03:33:22;;;;;;;2.42;2.08;;;20.90;43.10;;;;;;5031325;28;20359;-63
2021/08/30 03:35:50;;;;;;;2.28;2.00;;;20.90;44.00;;;;;;5028750;28;20037;-63
2021/08/30 03:38:17;;;;;;;2.88;2.20;;;20.80;43.50;;;;;;5030862;28;20052;-63
2021/08/30 03:40:43;;;;;;;3.05;2.38;;;20.80;44.10;;;;;;5027864;28;20026;-63
2021/08/30 03:43:10;;;;;;;4.07;2.35;;;20.80;43.70;;;;;;5027103;28;20026;-63
2021/08/30 03:45:37;;;;;;;2.28;2.10;;;20.80;44.20;;;;;;5030363;28;20179;-63
2021/08/30 03:48:03;;;;;;;3.28;2.13;;;20.80;43.90;;;;;;5017791;28;20025;-63
2021/08/30 03:50:29;;;;;;;3.10;2.28;;;20.80;44.10;;;;;;5024942;28;20110;-63
2021/08/30 03:52:56;;;;;;;2.75;2.13;;;20.80;44.00;;;;;;5023320;28;20076;-63
2021/08/30 03:55:22;;;;;;;3.05;2.05;;;20.70;43.90;;;;;;5039360;28;20037;-63
2021/08/30 03:57:56;;;;;;;4.25;2.53;;;20.70;44.20;;;;;;5024238;28;20056;-63
2021/08/30 04:00:22;;;;;;;2.65;2.30;;;20.80;44.60;;;;;;5026409;28;20032;-62
2021/08/30 04:02:49;;;;;;;3.47;2.45;;;20.60;43.90;;;;;;5017747;28;20145;-63
2021/08/30 04:05:19;;;;;;;3.53;2.63;;;20.60;44.20;;;;;;5025449;28;20471;-62
2021/08/30 04:07:45;;;;;;;2.05;1.95;;;20.60;44.40;;;;;;5025683;28;20037;-62
2021/08/30 04:10:11;;;;;;;4.03;2.60;;;20.60;44.80;;;;;;5011753;28;20104;-62
2021/08/30 04:12:37;;;;;;;3.65;2.50;;;20.60;45.30;;;;;;5022007;28;20589;-62
2021/08/30 04:15:03;;;;;;;3.33;2.42;;;20.60;44.60;;;;;;5018585;28;20061;-63
2021/08/30 04:17:29;;;;;;;2.45;2.15;;;20.60;44.50;;;;;;5022397;28;20171;-63
2021/08/30 04:19:55;;;;;;;2.67;2.45;;;20.50;44.70;;;;;;5020197;28;20108;-63
2021/08/30 04:22:20;;;;;;;2.60;2.40;;;20.50;45.00;;;;;;5022665;28;20475;-63
2021/08/30 04:24:46;;;;;;;3.42;2.40;;;20.50;44.90;;;;;;5020518;28;20030;-63
2021/08/30 04:27:12;;;;;;;3.90;2.38;;;20.50;45.20;;;;;;5020741;28;20030;-63
2021/08/30 04:29:38;;;;;;;2.90;2.25;;;20.50;45.00;;;;;;5024293;28;20053;-63
2021/08/30 04:32:07;;;;;;;3.55;2.75;;;20.50;45.20;;;;;;5029945;28;20069;-63
2021/08/30 04:34:34;;;;;;;2.63;2.42;;;20.60;45.10;;;;;;5023057;28;20396;-63
2021/08/30 04:37:00;;;;;;;3.63;3.30;;;20.50;45.20;;;;;;5024584;28;20091;-63
2021/08/30 04:39:25;;;;;;;3.15;2.85;;;20.50;45.40;;;;;;5021340;28;20483;-63
2021/08/30 04:41:51;;;;;;;3.17;2.88;;;20.40;45.70;;;;;;5026215;28;20021;-63
2021/08/30 04:44:17;;;;;;;3.05;2.78;;;20.40;45.70;;;;;;5025739;28;20026;-63
2021/08/30 04:46:42;;;;;;;3.05;2.50;;;20.40;46.10;;;;;;5031327;28;20052;-63
2021/08/30 04:49:08;;;;;;;5.78;3.03;;;20.40;46.60;;;;;;5031800;28;20040;-63
2021/08/30 04:51:34;;;;;;;3.22;2.92;;;20.30;46.80;;;;;;5030971;28;20034;-63
2021/08/30 04:53:59;;;;;;;4.38;3.58;;;20.20;46.50;;;;;;5026794;28;20040;-63
2021/08/30 04:56:25;;;;;;;3.13;2.92;;;20.20;46.90;;;;;;5019883;28;20061;-63
2021/08/30 04:58:51;;;;;;;2.97;2.67;;;20.20;46.70;;;;;;5028501;28;20018;-63
2021/08/30 05:01:16;;;;;;;5.85;2.88;;;20.30;46.70;;;;;;5047730;28;20021;-63
2021/08/30 05:03:42;;;;;;;5.22;2.90;;;20.30;47.30;;;;;;5032795;28;20116;-63
2021/08/30 05:06:08;;;;;;;4.53;3.20;;;20.30;47.40;;;;;;5032584;28;20395;-63
2021/08/30 05:08:33;;;;;;;5.20;3.33;;;20.30;47.50;;;;;;5024177;28;20033;-63
2021/08/30 05:10:59;;;;;;;3.67;2.75;;;20.30;47.50;;;;;;5025485;28;20495;-63
2021/08/30 05:13:26;;;;;;;4.35;3.20;;;20.30;47.60;;;;;;5027490;28;20438;-64
2021/08/30 05:15:51;;;;;;;4.53;2.85;;;20.20;47.70;;;;;;5022900;28;20120;-62
2021/08/30 05:18:17;;;;;;;7.50;3.67;;;20.30;47.80;;;;;;5027286;28;20117;-63
2021/08/30 05:20:43;;;;;;;4.05;3.53;;;20.20;48.40;;;;;;5034973;28;20037;-63
2021/08/30 05:23:08;;;;;;;4.85;3.75;;;20.20;47.90;;;;;;5030143;28;20468;-63
2021/08/30 05:25:34;;;;;;;4.80;3.33;;;20.10;48.10;;;;;;5023004;28;20037;-63
2021/08/30 05:27:59;;;;;;;4.43;3.35;;;20.00;48.60;;;;;;5027684;28;20432;-63
2021/08/30 05:30:25;;;;;;;4.70;3.47;;;20.20;50.30;;;;;;5034802;28;20025;-63
2021/08/30 05:32:51;;;;;;;3.88;3.53;;;20.20;50.70;;;;;;5030753;28;20514;-62
2021/08/30 05:35:16;;;;;;;4.03;3.45;;;20.10;49.90;;;;;;5024580;28;20072;-63
2021/08/30 05:37:42;;;;;;;6.60;3.88;;;20.20;49.50;;;;;;5019275;28;20041;-63
2021/08/30 05:40:08;;;;;;;5.38;3.53;;;20.30;49.20;;;;;;5026158;28;20039;-63
2021/08/30 05:42:34;;;;;;;4.18;3.63;;;20.40;49.30;;;;;;5024812;28;20029;-63
2021/08/30 05:44:59;;;;;;;8.32;3.83;;;20.40;49.00;;;;;;5022639;28;20527;-63
2021/08/30 05:47:25;;;;;;;4.03;3.45;;;20.50;49.00;;;;;;5020856;28;20337;-63
2021/08/30 05:49:51;;;;;;;6.65;3.53;;;20.50;48.90;;;;;;5018608;28;20033;-63
2021/08/30 05:52:16;;;;;;;5.55;4.43;;;20.50;49.00;;;;;;5020573;28;20021;-63
2021/08/30 05:54:42;;;;;;;4.93;3.58;;;20.40;48.90;;;;;;5022473;28;20041;-64
2021/08/30 05:57:08;;;;;;;6.13;4.20;;;20.50;49.00;;;;;;5019178;28;20033;-63
2021/08/30 05:59:36;;;;;;;9.30;3.95;;;20.50;49.00;;;;;;5022920;28;20034;-64
2021/08/30 06:02:02;;;;;;;6.60;3.70;;;20.50;49.20;;;;;;5020835;28;20061;-63
2021/08/30 06:04:27;;;;;;;5.90;3.42;;;20.50;48.70;;;;;;5023544;28;20128;-63
2021/08/30 06:06:53;;;;;;;4.57;3.47;;;20.60;48.70;;;;;;5025223;28;20053;-63
2021/08/30 06:09:19;;;;;;;3.50;3.20;;;20.60;48.80;;;;;;5026738;28;20025;-63
2021/08/30 06:11:47;;;;;;;6.13;3.80;;;20.50;49.00;;;;;;5023456;28;20112;-63
2021/08/30 06:14:12;;;;;;;5.35;3.08;;;20.40;48.90;;;;;;5027414;28;20025;-63
2021/08/30 06:16:38;;;;;;;4.05;3.00;;;20.40;49.20;;;;;;5027726;28;20032;-64
2021/08/30 06:19:03;;;;;;;5.30;2.88;;;20.50;49.40;;;;;;5021183;28;20581;-63
2021/08/30 06:21:29;;;;;;;6.35;3.20;;;20.50;49.20;;;;;;5018334;28;20037;-64
2021/08/30 06:23:55;;;;;;;6.72;3.67;;;20.50;48.90;;;;;;5021968;28;20032;-64
2021/08/30 06:26:20;;;;;;;3.38;3.08;;;20.50;48.90;;;;;;5023279;28;20061;-64
2021/08/30 06:28:46;;;;;;;7.22;3.53;;;20.50;48.90;;;;;;5029704;28;20451;-64
2021/08/30 06:31:11;;;;;;;3.22;2.92;;;20.50;49.20;;;;;;5023968;28;20054;-63
2021/08/30 06:33:37;;;;;;;6.38;3.30;;;20.50;48.90;;;;;;5021600;28;20037;-63
2021/08/30 06:36:03;;;;;;;6.40;3.60;;;20.50;48.70;;;;;;5023083;28;20033;-63
2021/08/30 06:38:28;;;;;;;3.58;3.15;;;20.50;48.90;;;;;;5022722;28;20082;-64
2021/08/30 06:40:54;;;;;;;6.32;3.83;;;20.60;48.80;;;;;;5027364;28;20045;-64
2021/08/30 06:43:19;;;;;;;4.88;3.70;;;20.60;49.10;;;;;;5027854;28;20021;-64
2021/08/30 06:45:45;;;;;;;6.55;3.70;;;20.60;48.90;;;;;;5025873;28;20030;-63
2021/08/30 06:48:10;;;;;;;3.45;2.88;;;20.60;48.50;;;;;;5029365;28;20033;-63
2021/08/30 06:50:36;;;;;;;3.88;3.53;;;20.50;48.60;;;;;;5032755;28;20033;-64
2021/08/30 06:53:02;;;;;;;9.45;3.75;;;20.60;49.00;;;;;;5030969;28;20029;-64
2021/08/30 06:55:27;;;;;;;6.63;3.42;;;20.60;48.90;;;;;;5033000;28;20388;-64
2021/08/30 06:57:53;;;;;;;10.02;3.30;;;20.60;49.10;;;;;;5030599;28;20021;-64
2021/08/30 07:00:19;;;;;;;6.50;3.40;;;20.60;49.20;;;;;;5030447;28;20468;-64
2021/08/30 07:02:45;;;;;;;3.83;3.35;;;20.50;49.50;;;;;;5030109;28;20025;-64
2021/08/30 07:05:11;;;;;;;4.97;2.88;;;20.60;49.80;;;;;;5031962;28;20017;-64
2021/08/30 07:07:37;;;;;;;5.53;3.05;;;20.60;49.60;;;;;;5025970;28;20087;-64
2021/08/30 07:10:03;;;;;;;4.05;2.75;;;20.60;49.10;;;;;;5029707;28;20033;-63
2021/08/30 07:12:29;;;;;;;5.85;3.15;;;20.60;49.70;;;;;;5032037;28;20472;-63
2021/08/30 07:14:54;;;;;;;5.88;3.13;;;20.60;49.70;;;;;;5025945;28;20045;-63
2021/08/30 07:17:20;;;;;;;4.68;3.20;;;20.60;49.20;;;;;;5031742;28;20025;-64
2021/08/30 07:19:46;;;;;;;7.50;3.45;;;20.70;49.20;;;;;;5031799;28;20467;-64
2021/08/30 07:22:12;;;;;;;6.88;2.67;;;20.70;49.00;;;;;;5032517;28;20471;-63
2021/08/30 07:24:38;;;;;;;2.88;2.50;;;20.80;48.70;;;;;;5028908;28;20391;-63
2021/08/30 07:27:03;;;;;;;2.90;2.15;;;20.90;48.40;;;;;;5024233;28;20022;-64
2021/08/30 07:29:30;;;;;;;4.47;2.08;;;20.90;48.40;;;;;;5029647;28;20037;-64
2021/08/30 07:31:56;;;;;;;6.90;2.63;;;21.00;48.60;;;;;;5024615;28;20045;-64
2021/08/30 07:34:24;;;;;;;7.53;2.58;;;21.00;48.10;;;;;;5029126;28;20489;-64
2021/08/30 07:36:49;;;;;;;5.90;2.60;;;21.10;48.10;;;;;;5030812;28;20064;-64
2021/08/30 07:39:15;;;;;;;3.78;2.85;;;21.00;47.80;;;;;;5030878;28;20029;-64
2021/08/30 07:41:40;;;;;;;4.68;2.30;;;21.10;48.10;;;;;;5030341;28;20030;-63
2021/08/30 07:44:06;;;;;;;9.43;3.25;;;21.10;48.70;;;;;;5022944;28;20049;-64
2021/08/30 07:46:31;;;;;;;4.32;2.60;;;21.10;48.50;;;;;;5022755;28;20084;-63
2021/08/30 07:48:57;;;;;;;6.32;2.47;;;21.10;48.00;;;;;;5029737;28;20064;-64
2021/08/30 07:51:22;;;;;;;4.68;2.55;;;21.20;47.70;;;;;;5023902;28;20072;-63
2021/08/30 07:53:48;;;;;;;2.70;2.28;;;21.30;47.70;;;;;;5025038;28;20022;-64
2021/08/30 07:56:14;;;;;;;12.98;3.33;;;21.30;47.20;;;;;;5031317;28;20575;-64
2021/08/30 07:58:40;;;;;;;6.70;2.83;;;21.40;47.50;;;;;;5030489;28;20509;-64
2021/08/30 08:01:05;;;;;;;7.45;2.95;;;21.40;47.00;;;;;;5030971;28;20029;-64
2021/08/30 08:03:31;;;;;;;3.80;2.33;;;21.40;46.90;;;;;;5028396;28;20395;-64
2021/08/30 08:05:56;;;;;;;6.90;2.55;;;21.50;47.20;;;;;;5023626;28;20104;-64
2021/08/30 08:08:22;;;;;;;4.68;2.38;;;21.60;46.40;;;;;;5024909;28;20053;-63
2021/08/30 08:10:48;;;;;;;2.05;1.85;;;21.40;46.30;;;;;;5026724;28;20041;-64
2021/08/30 08:13:13;;;;;;;1.83;1.67;;;21.50;45.70;;;;;;5030072;28;20027;-64
2021/08/30 08:15:40;;;;;;;3.25;1.85;;;21.60;44.60;;;;;;5034546;28;20175;-64
2021/08/30 08:18:06;;;;;;;2.22;1.58;;;21.70;44.70;;;;;;5026788;28;20030;-64
2021/08/30 08:20:32;;;;;;;2.72;2.10;;;21.70;44.80;;;;;;5036027;28;20030;-64
2021/08/30 08:23:02;;;;;;;4.28;2.40;;;21.70;44.80;;;;;;5033318;28;20024;-64
2021/08/30 08:25:28;;;;;;;5.05;2.72;;;21.70;44.10;;;;;;5036417;28;20388;-64
2021/08/30 08:27:54;;;;;;;4.40;2.10;;;21.80;44.40;;;;;;5022373;28;20079;-64
2021/08/30 08:30:20;;;;;;;6.28;1.95;;;21.80;44.70;;;;;;5035859;28;20045;-64
2021/08/30 08:32:46;;;;;;;4.05;2.33;;;21.90;44.40;;;;;;5035595;28;20053;-64
2021/08/30 08:35:12;;;;;;;4.20;2.30;;;22.00;43.80;;;;;;5023386;28;20422;-64
2021/08/30 08:37:38;;;;;;;4.88;2.53;;;22.00;43.80;;;;;;5034520;28;20026;-64
2021/08/30 08:40:06;;;;;;;4.20;2.45;;;22.10;43.60;;;;;;5031179;28;20034;-64
2021/08/30 08:42:35;;;;;;;3.90;2.47;;;22.20;42.90;;;;;;5035798;28;20080;-64
2021/08/30 08:45:03;;;;;;;4.80;2.00;;;22.10;42.80;;;;;;5031679;28;20036;-64
2021/08/30 08:47:29;;;;;;;1.95;1.85;;;22.20;41.80;;;;;;5028318;28;20021;-64
2021/08/30 08:49:54;;;;;;;5.80;1.83;;;22.40;41.10;;;;;;5027072;28;20041;-64
2021/08/30 08:52:21;;;;;;;3.45;2.17;;;22.70;42.00;;;;;;5034834;28;20475;-64
2021/08/30 08:54:47;;;;;;;3.40;2.00;;;23.10;47.50;;;;;;5031605;28;20040;-63
2021/08/30 08:57:12;;;;;;;2.15;1.95;;;23.30;39.00;;;;;;5034727;28;20029;-63
2021/08/30 08:59:38;;;;;;;3.17;2.00;;;23.60;51.40;;;;;;5025348;28;20026;-64
2021/08/30 09:02:06;;;;;;;3.47;2.50;;;23.70;48.90;;;;;;5031493;28;20033;-64
2021/08/30 09:04:33;;;;;;;3.22;2.03;;;23.70;47.20;;;;;;5031533;28;20025;-64
2021/08/30 09:07:13;;;;;;;3.78;2.58;;;23.70;47.10;;;;;;5034864;28;20041;-64
2021/08/30 09:09:41;;;;;;;2.80;2.05;;;23.80;46.50;;;;;;5032962;28;20036;-64
2021/08/30 09:12:21;;;;;;;2.25;2.03;;;23.90;46.10;;;;;;5032671;28;20041;-64
2021/08/30 09:14:47;;;;;;;4.22;2.55;;;23.90;44.90;;;;;;5033034;28;20033;-64
2021/08/30 09:17:13;;;;;;;3.25;1.40;;;24.10;44.20;;;;;;5030036;28;20022;-64
2021/08/30 09:19:39;;;;;;;3.15;1.95;;;24.20;41.80;;;;;;5032347;28;20036;-64
2021/08/30 09:22:07;;;;;;;5.57;2.22;;;24.40;39.40;;;;;;5035026;28;20430;-64
2021/08/30 09:24:33;;;;;;;9.82;2.47;;;24.30;39.40;;;;;;5031964;28;20036;-64
2021/08/30 09:27:05;;;;;;;2.95;2.13;;;24.40;38.80;;;;;;5033937;28;20033;-64
2021/08/30 09:29:38;;;;;;;2.50;2.05;;;24.30;39.10;;;;;;5033510;28;20112;-64
2021/08/30 09:32:19;;;;;;;2.03;1.83;;;24.40;38.50;;;;;;5033074;28;20052;-64
2021/08/30 09:34:57;;;;;;;3.67;1.73;;;24.40;38.00;;;;;;5025867;28;20059;-63
2021/08/30 09:37:24;;;;;;;6.43;2.83;;;24.60;38.70;;;;;;5031683;28;20024;-63
2021/08/30 09:39:55;;;;;;;3.63;2.20;;;24.60;36.20;;;;;;5033811;28;20034;-63
2021/08/30 09:42:23;;;;;;;3.10;2.00;;;24.60;36.00;;;;;;5033839;28;20101;-63
2021/08/30 09:44:48;;;;;;;2.75;1.88;;;24.60;36.60;;;;;;5033374;28;20131;-64
2021/08/30 09:47:17;;;;;;;2.17;1.65;;;24.50;36.60;;;;;;5033009;28;20531;-63
2021/08/30 09:49:51;;;;;;;2.38;1.75;;;24.60;35.50;;;;;;5027585;28;20053;-63
2021/08/30 09:52:21;;;;;;;4.85;1.45;;;24.70;34.90;;;;;;5034557;28;20450;-64
2021/08/30 09:54:48;;;;;;;4.50;1.40;;;24.80;34.70;;;;;;5028717;28;20042;-64
2021/08/30 09:57:15;;;;;;;1.40;1.30;;;24.90;33.90;;;;;;5033214;28;20024;-64
2021/08/30 09:59:43;;;;;;;6.40;1.90;;;24.80;34.60;;;;;;5027440;28;20456;-64
2021/08/30 10:02:12;;;;;;;4.20;1.73;;;24.70;35.60;;;;;;5032743;28;20526;-64
2021/08/30 10:04:40;;;;;;;3.40;2.22;;;24.50;35.20;;;;;;5032537;28;20034;-64
2021/08/30 10:07:08;;;;;;;2.88;2.28;;;24.50;35.30;;;;;;5032427;28;20076;-65
2021/08/30 10:09:35;;;;;;;5.55;1.75;;;24.50;35.70;;;;;;5032784;28;20395;-64
2021/08/30 10:12:02;;;;;;;4.97;1.85;;;24.50;35.60;;;;;;5030715;28;20026;-64
2021/08/30 10:14:30;;;;;;;3.97;2.70;;;24.40;35.70;;;;;;5032722;28;20049;-64
2021/08/30 10:17:02;;;;;;;4.50;2.45;;;24.30;35.50;;;;;;5032520;28;20029;-64
2021/08/30 10:19:35;;;;;;;2.97;2.50;;;24.30;34.80;;;;;;5023742;28;20030;-64
2021/08/30 10:22:13;;;;;;;3.72;2.80;;;24.30;35.40;;;;;;5031675;28;20020;-64
2021/08/30 10:24:40;;;;;;;3.70;2.63;;;24.10;36.10;;;;;;5028728;28;20163;-64
2021/08/30 10:27:09;;;;;;;4.03;3.00;;;24.40;36.10;;;;;;5030629;28;20495;-66
2021/08/30 10:29:36;;;;;;;3.25;2.45;;;24.50;35.60;;;;;;5032728;28;20072;-75
2021/08/30 10:32:03;;;;;;;5.53;2.80;;;24.60;35.30;;;;;;5025458;28;20422;-73
2021/08/30 10:34:35;;;;;;;3.83;2.20;;;24.80;34.80;;;;;;5026647;28;20040;-73
2021/08/30 10:37:03;;;;;;;3.58;2.90;;;24.80;34.30;;;;;;5032626;28;20030;-71
2021/08/30 10:39:40;;;;;;;3.20;2.72;;;24.80;34.30;;;;;;5032288;28;20030;-67
2021/08/30 10:42:05;;;;;;;3.20;2.65;;;25.00;33.20;;;;;;5032944;28;20037;-67
2021/08/30 10:44:32;;;;;;;4.38;2.95;;;24.90;33.80;;;;;;5032407;28;20509;-63
2021/08/30 10:47:00;;;;;;;3.50;2.05;;;25.00;32.60;;;;;;5021226;28;20037;-64
2021/08/30 10:49:31;;;;;;;2.80;2.10;;;25.00;31.90;;;;;;5030377;28;20742;-64
2021/08/30 10:52:15;;;;;;;3.83;2.35;;;25.10;31.70;;;;;;5031049;28;20099;-64
2021/08/30 10:54:58;;;;;;;4.18;2.33;;;25.10;32.10;;;;;;5032042;28;20483;-64
2021/08/30 10:57:35;;;;;;;2.67;2.25;;;25.00;32.40;;;;;;5031825;28;20025;-64
2021/08/30 11:00:02;;;;;;;4.72;1.52;;;25.30;32.20;;;;;;5026560;28;20028;-64
2021/08/30 11:02:37;;;;;;;2.15;1.90;;;25.40;32.20;;;;;;5022249;28;20425;-64
2021/08/30 11:05:04;;;;;;;2.05;1.80;;;25.50;32.70;;;;;;5028734;28;20100;-64
2021/08/30 11:07:30;;;;;;;3.15;2.20;;;25.60;31.60;;;;;;5032049;28;20036;-64
2021/08/30 11:09:56;;;;;;;5.53;1.83;;;25.60;31.70;;;;;;5025699;28;20017;-64
2021/08/30 11:12:21;;;;;;;4.85;2.55;;;25.80;31.60;;;;;;5032809;28;20545;-64
2021/08/30 11:14:55;;;;;;;3.35;1.70;;;25.60;31.90;;;;;;5031733;28;20033;-64
2021/08/30 11:17:29;;;;;;;5.03;1.60;;;25.70;31.50;;;;;;5032731;28;20032;-64
2021/08/30 11:19:55;;;;;;;;;;;25.90;30.70;;;;;;5023346;28;20043;-64
2021/08/30 11:22:22;;;;;;;3.10;1.85;;;26.00;23.00;;;;;;5029549;28;19908;-64
2021/08/30 11:24:47;;;;;;;3.35;1.60;;;26.10;25.20;;;;;;5025823;28;20032;-62
2021/08/30 11:27:14;;;;;;;2.75;2.25;;;26.20;25.10;;;;;;5032793;28;20125;-63
2021/08/30 11:29:50;;;;;;;2.95;2.13;;;26.30;25.20;;;;;;5024014;28;20498;-63
2021/08/30 11:32:18;;;;;;;4.43;2.38;;;26.40;25.10;;;;;;5020141;28;20061;-63
2021/08/30 11:34:45;;;;;;;4.85;1.98;;;26.30;24.50;;;;;;5023134;28;20041;-64
2021/08/30 11:37:23;;;;;;;3.13;2.00;;;26.30;24.70;;;;;;5014933;28;20021;-64
2021/08/30 11:39:51;;;;;;;2.33;1.92;;;26.40;24.20;;;;;;5029133;28;20064;-63
2021/08/30 11:42:19;;;;;;;2.40;2.20;;;26.70;24.70;;;;;;5023638;28;20028;-63
2021/08/30 11:44:46;;;;;;;4.38;2.30;;;26.80;24.80;;;;;;5031216;28;20095;-63
2021/08/30 11:47:14;;;;;;;4.43;2.40;;;26.90;24.50;;;;;;5028845;28;20426;-63
2021/08/30 11:49:40;;;;;;;7.97;2.20;;;27.30;28.90;;;;;;5019735;28;20455;-63
2021/08/30 11:52:06;;;;;;;3.10;1.95;;;29.80;22.60;;;;;;5032155;28;20032;-63
2021/08/30 11:54:38;;;;;;;2.83;2.08;;;32.90;19.50;;;;;;5031046;28;20040;-63
2021/08/30 11:57:05;;;;;;;3.08;2.53;;;34.30;25.20;;;;;;5031402;28;20109;-63
2021/08/30 11:59:34;;;;;;;2.45;2.08;;;34.00;22.20;;;;;;5019935;28;20056;-63
2021/08/30 12:02:01;;;;;;;4.72;2.40;;;33.40;16.50;;;;;;5031618;28;20009;-63
2021/08/30 12:04:29;;;;;;;2.55;2.30;;;32.30;16.00;;;;;;5029504;28;20026;-64
2021/08/30 12:06:57;;;;;;;3.05;2.03;;;32.30;16.80;;;;;;5029804;28;20033;-64
2021/08/30 12:09:22;;;;;;;2.70;2.50;;;31.90;17.30;;;;;;5023583;28;20033;-64
2021/08/30 12:11:51;;;;;;;4.40;1.92;;;31.50;17.60;;;;;;5030474;28;20033;-64
2021/08/30 12:14:17;;;;;;;10.52;2.55;;;32.10;17.50;;;;;;5031669;28;20567;-64
2021/08/30 12:16:45;;;;;;;3.85;2.20;;;32.60;16.80;;;;;;5029203;28;20057;-64
2021/08/30 12:19:14;;;;;;;4.60;2.45;;;34.00;45.50;;;;;;5043965;28;20029;-64
2021/08/30 12:21:41;;;;;;;5.53;2.05;;;;;;;;;;5024222;28;20030;-64
2021/08/30 12:24:08;;;;;;;2.95;1.88;;;35.30;40.00;;;;;;5031720;28;20483;-65
2021/08/30 12:26:39;;;;;;;7.03;3.35;;;36.50;14.10;;;;;;5030309;28;20030;-64
2021/08/30 12:29:06;;;;;;;3.70;2.30;;;;;;;;;;5027433;28;20121;-64
2021/08/30 12:31:34;;;;;;;3.00;1.90;;;35.60;31.30;;;;;;5043207;28;20042;-65
2021/08/30 12:34:04;;;;;;;2.20;2.00;;;35.20;18.00;;;;;;5026879;28;20495;-65
2021/08/30 12:36:29;;;;;;;5.25;2.25;;;34.60;13.40;;;;;;5030410;28;20034;-65
2021/08/30 12:38:55;;;;;;;3.70;2.00;;;35.70;11.90;;;;;;5027777;28;20029;-65
2021/08/30 12:41:21;;;;;;;2.95;2.15;;;36.10;11.80;;;;;;5026693;28;20029;-65
2021/08/30 12:43:48;;;;;;;2.20;2.00;;;36.90;24.60;;;;;;5031693;28;20025;-65
2021/08/30 12:46:17;;;;;;;2.47;2.28;;;37.20;18.70;;;;;;5030813;28;20440;-65
2021/08/30 12:48:43;;;;;;;2.63;2.25;;;;;;;;;;5031708;28;20037;-64
2021/08/30 12:51:08;;;;;;;3.80;2.10;;;38.00;9.10;;;;;;5029275;28;20124;-64
2021/08/30 12:53:35;;;;;;;3.17;2.60;;;38.00;11.60;;;;;;5029855;28;20036;-65